Time;durP1;ratioP1;P1;durP2;ratioP2;P2;SDS_P1;SDS_P2;PMS_P1;PMS_P2;Temp;Humidity;BMP_temperature;BMP_pressure;BME280_temperature;BME280_humidity;BME280_pressure;Samples;Min_cycle;Max_cycle;Signal;HPM_P1;HPM_P2
2022/03/06 00:02:05;;;;;;;12.47;11.33;;;;;;;2.38;76.85;94596.78;5047283;28;20344;-65
2022/03/06 00:04:31;;;;;;;13.23;12.03;;;;;;;2.38;77.41;94590.75;5044649;28;20654;-65
2022/03/06 00:06:57;;;;;;;13.30;12.10;;;;;;;2.22;76.83;94596.25;5040141;28;20335;-65
2022/03/06 00:09:23;;;;;;;12.10;10.93;;;;;;;2.30;76.56;94593.06;5043875;28;20337;-66
2022/03/06 00:11:49;;;;;;;12.57;11.33;;;;;;;2.32;76.78;94592.00;5043376;28;20335;-66
2022/03/06 00:14:15;;;;;;;12.13;10.93;;;;;;;2.42;76.48;94590.41;5042365;28;20366;-65
2022/03/06 00:16:41;;;;;;;11.20;10.20;;;;;;;2.35;76.52;94583.19;5041689;28;20240;-65
2022/03/06 00:19:06;;;;;;;10.70;9.70;;;;;;;2.37;76.20;94586.50;5041091;28;20257;-65
2022/03/06 00:21:34;;;;;;;11.43;10.40;;;;;;;2.50;76.09;94587.25;5043731;28;20224;-66
2022/03/06 00:23:59;;;;;;;10.10;9.20;;;;;;;2.42;76.20;94592.19;5040256;28;20228;-66
2022/03/06 00:26:25;;;;;;;9.73;8.83;;;;;;;2.43;75.42;94589.47;5058622;28;20232;-67
2022/03/06 00:28:50;;;;;;;9.10;8.23;;;;;;;2.41;75.94;94580.16;5042372;28;20208;-65
2022/03/06 00:31:16;;;;;;;9.13;8.33;;;;;;;2.32;76.00;94589.41;5042943;28;20321;-65
2022/03/06 00:33:41;;;;;;;8.53;7.83;;;;;;;2.35;76.02;94581.44;5044053;28;20308;-65
2022/03/06 00:36:07;;;;;;;8.47;7.70;;;;;;;2.30;76.24;94583.53;5041864;28;20232;-66
2022/03/06 00:38:32;;;;;;;8.33;7.60;;;;;;;2.26;76.91;94581.28;5058766;28;20255;-65
2022/03/06 00:40:58;;;;;;;8.33;7.63;;;;;;;2.31;76.52;94582.59;5038667;28;20286;-66
2022/03/06 00:43:23;;;;;;;7.67;7.07;;;;;;;2.27;76.71;94580.31;5040234;28;20201;-65
2022/03/06 00:45:49;;;;;;;7.87;7.27;;;;;;;2.35;76.13;94570.22;5040436;28;20221;-66
2022/03/06 00:48:14;;;;;;;7.50;6.90;;;;;;;2.28;76.68;94569.84;5043750;28;20225;-66
2022/03/06 00:50:40;;;;;;;7.47;6.83;;;;;;;2.35;76.74;94571.06;5043308;28;20224;-66
2022/03/06 00:53:06;;;;;;;8.00;7.30;;;;;;;2.32;76.29;94560.06;5040395;28;20228;-66
2022/03/06 00:55:32;;;;;;;7.80;7.10;;;;;;;2.40;76.15;94561.13;5040617;28;20213;-65
2022/03/06 00:58:05;;;;;;;8.10;7.40;;;;;;;2.39;76.15;94554.31;5060001;28;20224;-65
2022/03/06 01:00:39;;;;;;;8.37;7.67;;;;;;;2.24;76.44;94558.03;5059187;28;20615;-65
2022/03/06 01:03:06;;;;;;;8.17;7.47;;;;;;;2.31;76.91;94561.84;5032788;28;20228;-65
2022/03/06 01:05:32;;;;;;;7.97;7.27;;;;;;;2.36;76.48;94556.31;5040569;28;20232;-65
2022/03/06 01:07:58;;;;;;;8.30;7.60;;;;;;;2.23;77.16;94553.78;5042150;28;20511;-65
2022/03/06 01:10:24;;;;;;;9.30;8.37;;;;;;;2.24;77.01;94549.41;5044404;28;20213;-65
2022/03/06 01:12:49;;;;;;;9.10;8.30;;;;;;;2.26;77.01;94550.13;5040811;28;20220;-65
2022/03/06 01:15:15;;;;;;;9.03;8.30;;;;;;;2.25;76.95;94545.91;5057028;28;20228;-66
2022/03/06 01:17:40;;;;;;;9.60;8.80;;;;;;;2.27;77.14;94549.19;5025805;28;20247;-65
2022/03/06 01:20:06;;;;;;;9.83;8.90;;;;;;;2.29;77.05;94545.53;5041212;28;20256;-65
2022/03/06 01:22:32;;;;;;;10.30;9.30;;;;;;;2.21;77.22;94546.09;5042015;28;20219;-65
2022/03/06 01:24:57;;;;;;;10.77;9.87;;;;;;;2.31;76.67;94545.44;5042991;28;20229;-65
2022/03/06 01:27:24;;;;;;;11.53;10.43;;;;;;;2.12;77.21;94545.97;5041671;28;20231;-66
2022/03/06 01:29:49;;;;;;;12.03;10.93;;;;;;;2.23;76.99;94543.41;5040981;28;20228;-65
2022/03/06 01:32:15;;;;;;;12.20;11.10;;;;;;;2.21;76.90;94546.09;5043658;28;20248;-65
2022/03/06 01:34:41;;;;;;;13.00;11.87;;;;;;;2.21;76.98;94543.50;5041620;28;20212;-65
2022/03/06 01:37:06;;;;;;;12.47;11.37;;;;;;;2.14;77.30;94544.91;5048156;28;20225;-65
2022/03/06 01:39:32;;;;;;;13.10;11.90;;;;;;;2.20;77.23;94541.06;5046547;28;20235;-64
2022/03/06 01:41:57;;;;;;;13.17;11.97;;;;;;;2.25;77.44;94536.34;5048553;28;20224;-65
2022/03/06 01:44:23;;;;;;;13.90;12.60;;;;;;;2.31;76.96;94535.06;5049147;28;20220;-65
2022/03/06 01:46:48;;;;;;;14.60;13.30;;;;;;;2.32;76.86;94536.72;5060859;28;20223;-65
2022/03/06 01:49:15;;;;;;;13.67;12.37;;;;;;;2.34;76.84;94537.44;5044025;28;20211;-65
2022/03/06 01:51:42;;;;;;;14.43;13.03;;;;;;;2.36;76.46;94531.19;5045323;28;20273;-65
2022/03/06 01:54:08;;;;;;;14.87;13.47;;;;;;;2.39;76.65;94528.38;5044131;28;20229;-65
2022/03/06 01:56:35;;;;;;;15.23;13.83;;;;;;;2.37;76.75;94530.22;5041761;28;20282;-65
2022/03/06 01:59:03;;;;;;;15.03;13.73;;;;;;;2.34;76.55;94527.88;5045484;28;20240;-65
2022/03/06 02:01:29;;;;;;;15.20;13.80;;;;;;;2.33;76.50;94525.41;5045067;28;20213;-65
2022/03/06 02:03:55;;;;;;;16.27;14.73;;;;;;;2.34;76.71;94521.88;5028427;28;20229;-66
2022/03/06 02:06:24;;;;;;;16.63;15.03;;;;;;;2.37;76.87;94521.63;5043572;28;20243;-65
2022/03/06 02:08:50;;;;;;;16.30;14.73;;;;;;;2.38;76.93;94523.31;5044833;28;20224;-65
2022/03/06 02:11:15;;;;;;;16.40;14.90;;;;;;;2.46;76.21;94523.56;5044722;28;20251;-65
2022/03/06 02:13:43;;;;;;;17.53;15.90;;;;;;;2.42;76.36;94522.13;5045466;28;20240;-65
2022/03/06 02:16:09;;;;;;;16.13;14.53;;;;;;;2.41;76.46;94520.47;5061019;28;20303;-65
2022/03/06 02:18:35;;;;;;;16.10;14.60;;;;;;;2.44;75.97;94528.03;5043189;28;20236;-65
2022/03/06 02:21:13;;;;;;;16.90;15.20;;;;;;;2.47;75.89;94520.00;5062344;28;20237;-65
2022/03/06 02:23:38;;;;;;;16.27;14.67;;;;;;;2.37;76.50;94521.63;5045605;28;20239;-66
2022/03/06 02:26:05;;;;;;;15.40;14.00;;;;;;;2.42;76.12;94516.94;5043356;28;20224;-67
2022/03/06 02:28:31;;;;;;;15.73;14.23;;;;;;;2.38;76.59;94518.13;5038533;28;20204;-67
2022/03/06 02:30:57;;;;;;;16.63;15.13;;;;;;;2.40;76.25;94516.22;5060409;28;20243;-67
2022/03/06 02:33:23;;;;;;;16.00;14.50;;;;;;;2.41;76.45;94520.47;5043519;28;20293;-67
2022/03/06 02:35:49;;;;;;;13.67;12.37;;;;;;;2.35;76.02;94513.13;5046541;28;20339;-67
2022/03/06 02:38:15;;;;;;;13.20;12.00;;;;;;;2.43;76.28;94515.97;5043962;28;20235;-68
2022/03/06 02:40:44;;;;;;;12.53;11.33;;;;;;;2.35;75.95;94518.31;5044813;28;20201;-68
2022/03/06 02:43:14;;;;;;;12.57;11.47;;;;;;;2.36;75.90;94522.59;5043792;28;20264;-66
2022/03/06 02:45:40;;;;;;;11.17;10.17;;;;;;;2.36;75.97;94515.63;5059669;28;20223;-66
2022/03/06 02:48:07;;;;;;;11.07;10.07;;;;;;;2.39;75.93;94530.13;5044161;28;20286;-67
2022/03/06 02:50:36;;;;;;;10.73;9.83;;;;;;;2.48;75.81;94524.25;5049051;28;20235;-67
2022/03/06 02:53:05;;;;;;;10.37;9.37;;;;;;;2.42;75.52;94509.97;5050823;28;20248;-67
2022/03/06 02:55:31;;;;;;;10.40;9.50;;;;;;;2.41;75.61;94517.88;5045044;28;20276;-66
2022/03/06 02:57:57;;;;;;;9.00;8.20;;;;;;;2.41;75.39;94523.06;5045502;28;20316;-66
2022/03/06 03:00:26;;;;;;;9.50;8.67;;;;;;;2.45;74.64;94523.66;5043999;28;20225;-66
2022/03/06 03:02:53;;;;;;;8.30;7.60;;;;;;;2.34;75.14;94521.88;5060359;28;20224;-66
2022/03/06 03:05:19;;;;;;;7.57;6.97;;;;;;;2.40;75.02;94527.41;5045116;28;20232;-66
2022/03/06 03:07:49;;;;;;;7.67;7.00;;;;;;;2.43;74.32;94522.00;5043923;28;20240;-66
2022/03/06 03:10:18;;;;;;;6.63;6.10;;;;;;;2.52;73.87;94525.69;5050719;28;20232;-66
2022/03/06 03:12:44;;;;;;;6.90;6.30;;;;;;;2.42;74.40;94519.53;5048005;28;20217;-67
2022/03/06 03:15:11;;;;;;;6.27;5.73;;;;;;;2.42;74.63;94529.91;5033371;28;20291;-67
2022/03/06 03:17:37;;;;;;;6.33;5.83;;;;;;;2.46;74.28;94528.75;5062035;28;20287;-67
2022/03/06 03:20:04;;;;;;;5.93;5.43;;;;;;;2.34;74.70;94537.44;5048069;28;20239;-67
2022/03/06 03:22:30;;;;;;;5.90;5.40;;;;;;;2.23;74.89;94535.63;5046276;28;20212;-66
2022/03/06 03:24:55;;;;;;;6.27;5.77;;;;;;;2.11;75.70;94533.94;5060800;28;20278;-66
2022/03/06 03:27:21;;;;;;;6.10;5.60;;;;;;;2.30;75.38;94534.25;5046275;28;20260;-67
2022/03/06 03:29:46;;;;;;;5.40;5.00;;;;;;;2.30;74.78;94542.03;5048192;28;20223;-66
2022/03/06 03:32:12;;;;;;;5.40;5.00;;;;;;;2.25;74.92;94533.75;5046315;28;20240;-68
2022/03/06 03:34:38;;;;;;;5.27;4.77;;;;;;;2.24;75.12;94536.44;5044545;28;20226;-67
2022/03/06 03:37:05;;;;;;;5.63;5.23;;;;;;;2.35;75.03;94536.47;5045341;28;20208;-67
2022/03/06 03:39:30;;;;;;;5.40;5.00;;;;;;;2.25;75.18;94533.75;5040774;28;20602;-67
2022/03/06 03:41:56;;;;;;;5.37;4.97;;;;;;;2.34;75.18;94538.25;5045670;28;20294;-65
2022/03/06 03:44:21;;;;;;;5.57;5.10;;;;;;;2.24;75.29;94536.44;5048339;28;20252;-65
2022/03/06 03:46:47;;;;;;;5.33;4.93;;;;;;;2.23;74.88;94546.00;5049306;28;20197;-65
2022/03/06 03:49:14;;;;;;;5.47;4.97;;;;;;;2.16;75.16;94537.00;5045405;28;20212;-65
2022/03/06 03:51:40;;;;;;;5.50;5.03;;;;;;;2.19;75.41;94545.41;5041209;28;20228;-67
2022/03/06 03:54:06;;;;;;;5.70;5.20;;;;;;;2.16;75.76;94543.03;5043694;28;20363;-66
2022/03/06 03:56:31;;;;;;;4.67;4.27;;;;;;;2.15;75.69;94543.16;5043308;28;20324;-66
2022/03/06 03:58:57;;;;;;;5.10;4.70;;;;;;;2.18;75.58;94543.75;5042878;28;20232;-66
2022/03/06 04:01:22;;;;;;;4.83;4.30;;;;;;;2.06;76.06;94549.00;5049055;28;20200;-66
2022/03/06 04:03:48;;;;;;;4.77;4.37;;;;;;;2.10;76.19;94551.25;5048708;28;20216;-66
2022/03/06 04:06:13;;;;;;;4.43;4.13;;;;;;;2.11;76.00;94536.53;5045229;28;20231;-66
2022/03/06 04:08:39;;;;;;;4.77;4.40;;;;;;;2.06;76.35;94549.84;5042616;28;20217;-66
2022/03/06 04:11:05;;;;;;;4.33;4.00;;;;;;;2.04;76.67;94556.91;5044357;28;20311;-66
2022/03/06 04:13:31;;;;;;;4.77;4.37;;;;;;;2.01;76.67;94548.53;5044993;28;20219;-66
2022/03/06 04:15:56;;;;;;;4.87;4.47;;;;;;;2.05;76.19;94547.34;5044136;28;20217;-65
2022/03/06 04:18:22;;;;;;;4.00;3.60;;;;;;;2.01;76.52;94546.75;5048043;28;20231;-66
2022/03/06 04:20:48;;;;;;;4.87;4.47;;;;;;;2.04;76.45;94554.31;5046776;28;20220;-66
2022/03/06 04:23:14;;;;;;;4.77;4.37;;;;;;;1.90;76.38;94550.13;5048231;28;20239;-66
2022/03/06 04:25:40;;;;;;;4.23;3.93;;;;;;;2.04;76.51;94545.72;5044177;28;20212;-67
2022/03/06 04:28:06;;;;;;;4.60;4.30;;;;;;;2.05;76.34;94542.97;5043253;28;20216;-66
2022/03/06 04:30:32;;;;;;;4.00;3.70;;;;;;;1.91;76.68;94544.00;5043196;28;20225;-65
2022/03/06 04:32:57;;;;;;;4.50;4.10;;;;;;;1.96;76.84;94548.84;5057888;28;20229;-66
2022/03/06 04:35:23;;;;;;;4.37;3.97;;;;;;;1.94;76.50;94554.13;5045166;28;20217;-66
2022/03/06 04:37:48;;;;;;;4.30;4.00;;;;;;;1.77;76.80;94551.94;5046828;28;20223;-66
2022/03/06 04:40:14;;;;;;;4.30;3.90;;;;;;;1.88;76.52;94553.75;5045892;28;20220;-66
2022/03/06 04:42:40;;;;;;;4.20;3.87;;;;;;;1.87;76.85;94547.75;5045994;28;20221;-66
2022/03/06 04:45:06;;;;;;;3.57;3.27;;;;;;;1.87;77.19;94555.53;5042912;28;20315;-65
2022/03/06 04:47:31;;;;;;;3.90;3.60;;;;;;;1.97;76.92;94550.50;5042323;28;20251;-65
2022/03/06 04:49:57;;;;;;;4.40;4.00;;;;;;;1.85;76.97;94557.41;5045877;28;20240;-66
2022/03/06 04:52:23;;;;;;;4.13;3.83;;;;;;;1.92;76.83;94562.97;5047715;28;20209;-65
2022/03/06 04:54:48;;;;;;;3.87;3.57;;;;;;;1.95;76.50;94557.56;5046751;28;20224;-66
2022/03/06 04:57:14;;;;;;;4.17;3.77;;;;;;;1.88;76.45;94564.13;5046965;28;20240;-65
2022/03/06 04:59:40;;;;;;;4.10;3.70;;;;;;;1.86;76.55;94560.81;5045905;28;20240;-64
2022/03/06 05:02:05;;;;;;;3.80;3.50;;;;;;;1.89;76.63;94548.44;5043112;28;20268;-65
2022/03/06 05:04:31;;;;;;;4.13;3.83;;;;;;;1.95;76.68;94554.97;5060216;28;20259;-66
2022/03/06 05:06:56;;;;;;;4.70;4.30;;;;;;;1.99;76.84;94553.81;5042912;28;20224;-66
2022/03/06 05:09:22;;;;;;;3.57;3.27;;;;;;;1.92;76.39;94547.41;5042410;28;20224;-65
2022/03/06 05:11:47;;;;;;;4.13;3.63;;;;;;;1.97;76.78;94564.28;5061503;28;20220;-64
2022/03/06 05:14:13;;;;;;;3.93;3.57;;;;;;;1.85;76.50;94557.41;5063756;28;20243;-64
2022/03/06 05:16:38;;;;;;;3.77;3.47;;;;;;;1.79;76.72;94557.00;5046634;28;20204;-65
2022/03/06 05:19:04;;;;;;;3.83;3.53;;;;;;;1.90;76.84;94570.03;5043952;28;20212;-65
2022/03/06 05:21:29;;;;;;;3.97;3.67;;;;;;;1.91;76.58;94559.53;5043455;28;20217;-65
2022/03/06 05:23:55;;;;;;;4.17;3.57;;;;;;;1.81;77.16;94557.72;5042039;28;20280;-65
2022/03/06 05:26:20;;;;;;;3.70;3.40;;;;;;;1.78;76.80;94556.19;5058591;28;20269;-65
2022/03/06 05:28:46;;;;;;;4.07;3.43;;;;;;;1.88;76.92;94553.75;5045202;28;20224;-65
2022/03/06 05:31:11;;;;;;;3.50;3.20;;;;;;;1.92;76.46;94558.59;5047050;28;20239;-65
2022/03/06 05:33:37;;;;;;;4.10;3.80;;;;;;;1.90;76.54;94560.50;5042482;28;20231;-65
2022/03/06 05:36:03;;;;;;;3.97;3.67;;;;;;;1.90;76.89;94568.28;5041535;28;20216;-64
2022/03/06 05:38:29;;;;;;;3.87;3.57;;;;;;;1.87;76.22;94568.50;5046081;28;20228;-65
2022/03/06 05:40:54;;;;;;;3.97;3.33;;;;;;;1.98;76.50;94578.09;5042818;28;20212;-65
2022/03/06 05:43:19;;;;;;;3.97;3.63;;;;;;;1.89;76.31;94568.38;5044089;28;20215;-65
2022/03/06 05:45:50;;;;;;;3.70;3.40;;;;;;;1.97;76.33;94576.44;5041920;28;20248;-65
2022/03/06 05:48:16;;;;;;;3.70;3.43;;;;;;;2.01;76.14;94572.69;5043267;28;20482;-65
2022/03/06 05:50:43;;;;;;;3.70;3.40;;;;;;;2.01;75.97;94572.69;5043412;28;20339;-66
2022/03/06 05:53:09;;;;;;;4.27;3.97;;;;;;;2.03;75.74;94573.38;5042236;28;20220;-64
2022/03/06 05:55:35;;;;;;;4.10;3.80;;;;;;;2.04;75.71;94567.28;5044509;28;20206;-64
2022/03/06 05:58:00;;;;;;;4.67;3.87;;;;;;;1.99;76.15;94569.38;5042324;28;20281;-65
2022/03/06 06:00:26;;;;;;;4.47;4.00;;;;;;;2.06;75.42;94564.56;5042958;28;20320;-65
2022/03/06 06:02:51;;;;;;;3.97;3.67;;;;;;;1.99;75.47;94566.78;5045419;28;20290;-65
2022/03/06 06:05:16;;;;;;;4.13;3.83;;;;;;;1.92;76.17;94568.97;5043192;28;20249;-65
2022/03/06 06:07:42;;;;;;;4.00;3.70;;;;;;;1.87;75.87;94571.09;5059221;28;20282;-65
2022/03/06 06:10:09;;;;;;;4.13;3.83;;;;;;;2.04;75.49;94572.47;5057313;28;20212;-65
2022/03/06 06:12:34;;;;;;;4.30;3.90;;;;;;;2.06;75.26;94574.94;5039645;28;20217;-66
2022/03/06 06:15:00;;;;;;;4.40;4.10;;;;;;;1.98;75.24;94584.09;5041105;28;20228;-66
2022/03/06 06:17:25;;;;;;;3.97;3.67;;;;;;;2.11;75.69;94589.25;5058785;28;20283;-65
2022/03/06 06:19:50;;;;;;;3.73;3.50;;;;;;;1.96;75.53;94585.16;5045233;28;20200;-65
2022/03/06 06:22:16;;;;;;;3.83;3.53;;;;;;;2.00;75.59;94589.16;5048668;28;20223;-65
2022/03/06 06:24:41;;;;;;;3.60;3.30;;;;;;;2.03;75.18;94594.13;5048650;28;20228;-65
2022/03/06 06:27:07;;;;;;;3.67;3.37;;;;;;;2.01;75.32;94577.88;5045622;28;20248;-66
2022/03/06 06:29:32;;;;;;;4.00;3.60;;;;;;;1.95;75.28;94589.53;5044094;28;20229;-65
2022/03/06 06:31:59;;;;;;;3.73;3.43;;;;;;;1.99;75.00;94590.13;5044772;28;20243;-66
2022/03/06 06:34:24;;;;;;;3.83;3.53;;;;;;;1.93;75.10;94591.38;5060712;28;20217;-65
2022/03/06 06:36:50;;;;;;;3.63;3.33;;;;;;;1.99;74.93;94596.13;5042593;28;20223;-66
2022/03/06 06:39:15;;;;;;;3.50;3.30;;;;;;;1.98;75.02;94594.47;5047143;28;20257;-65
2022/03/06 06:41:42;;;;;;;4.10;3.70;;;;;;;2.12;74.47;94596.06;5048627;28;20225;-66
2022/03/06 06:44:09;;;;;;;3.77;3.47;;;;;;;2.08;74.53;94596.41;5049907;28;20229;-66
2022/03/06 06:46:35;;;;;;;4.30;3.93;;;;;;;2.04;74.95;94597.56;5046309;28;20212;-65
2022/03/06 06:49:03;;;;;;;4.70;4.23;;;;;;;2.13;75.05;94597.72;5046455;28;20232;-67
2022/03/06 06:51:29;;;;;;;5.20;4.70;;;;;;;2.06;74.81;94599.13;5045123;28;20228;-66
2022/03/06 06:53:54;;;;;;;4.47;4.17;;;;;;;2.10;74.78;94597.94;5042777;28;20294;-66
2022/03/06 06:56:20;;;;;;;4.10;3.80;;;;;;;2.13;74.69;94600.31;5051644;28;20232;-66
2022/03/06 06:58:45;;;;;;;4.33;4.00;;;;;;;2.17;74.33;94606.13;5045947;28;20226;-66
2022/03/06 07:01:11;;;;;;;3.73;3.43;;;;;;;2.16;74.62;94607.88;5059977;28;20211;-65
2022/03/06 07:03:36;;;;;;;4.50;3.50;;;;;;;2.13;74.55;94610.69;5049345;28;20274;-65
2022/03/06 07:06:02;;;;;;;3.17;2.97;;;;;;;2.10;74.48;94602.31;5048569;28;20228;-66
2022/03/06 07:08:27;;;;;;;3.30;3.00;;;;;;;2.16;74.68;94614.81;5044364;28;20568;-66
2022/03/06 07:10:53;;;;;;;3.00;2.80;;;;;;;2.09;74.79;94601.47;5026867;28;20251;-68
2022/03/06 07:13:18;;;;;;;3.43;3.10;;;;;;;2.09;74.55;94598.06;5047863;28;20215;-65
2022/03/06 07:15:44;;;;;;;3.20;2.90;;;;;;;2.02;73.86;94602.03;5048950;28;20677;-65
2022/03/06 07:18:10;;;;;;;3.37;3.07;;;;;;;2.08;74.50;94606.78;5048657;28;20232;-64
2022/03/06 07:20:35;;;;;;;3.50;3.20;;;;;;;2.08;74.76;94597.22;5043653;28;20532;-65
2022/03/06 07:23:00;;;;;;;4.00;3.20;;;;;;;2.13;74.36;94600.31;5041558;28;20327;-66
2022/03/06 07:25:26;;;;;;;4.13;3.27;;;;;;;2.12;74.21;94597.84;5044216;28;20274;-66
2022/03/06 07:27:53;;;;;;;3.63;3.33;;;;;;;2.09;74.10;94591.13;5042702;28;20217;-66
2022/03/06 07:30:18;;;;;;;3.23;3.03;;;;;;;2.13;74.20;94594.31;5065009;28;20236;-66
2022/03/06 07:32:46;;;;;;;3.60;3.30;;;;;;;2.20;74.12;94593.75;5048722;28;20256;-64
2022/03/06 07:35:12;;;;;;;3.57;3.27;;;;;;;2.30;74.14;94600.84;5042126;28;20251;-65
2022/03/06 07:37:38;;;;;;;3.37;2.90;;;;;;;2.41;73.52;94590.53;5044123;28;20291;-64
2022/03/06 07:40:04;;;;;;;3.53;3.23;;;;;;;2.47;73.65;94599.63;5059136;28;20304;-64
2022/03/06 07:42:30;;;;;;;3.77;3.43;;;;;;;2.54;73.04;94588.69;5040353;28;20286;-66
2022/03/06 07:44:56;;;;;;;3.60;3.37;;;;;;;2.38;73.44;94598.56;5059852;28;20228;-65
2022/03/06 07:47:22;;;;;;;3.30;3.00;;;;;;;2.34;73.46;94595.34;5061979;28;20318;-66
2022/03/06 07:49:47;;;;;;;3.20;3.00;;;;;;;2.26;73.67;94609.81;5064416;28;20221;-65
2022/03/06 07:52:12;;;;;;;3.23;2.93;;;;;;;2.34;73.79;94613.50;5049775;28;20205;-65
2022/03/06 07:54:38;;;;;;;3.53;3.20;;;;;;;2.44;73.68;94621.44;5045343;28;20221;-65
2022/03/06 07:57:04;;;;;;;3.10;2.90;;;;;;;2.37;73.79;94620.22;5043081;28;20274;-65
2022/03/06 07:59:29;;;;;;;3.03;2.73;;;;;;;2.37;73.24;94620.22;5057533;28;20259;-65
2022/03/06 08:01:55;;;;;;;4.13;3.30;;;;;;;2.29;73.83;94620.78;5039517;28;20232;-65
2022/03/06 08:04:20;;;;;;;3.00;2.80;;;;;;;2.39;73.99;94623.53;5042526;28;20236;-65
2022/03/06 08:06:47;;;;;;;2.83;2.63;;;;;;;2.37;73.63;94609.84;5057803;28;20405;-65
2022/03/06 08:09:13;;;;;;;3.20;2.90;;;;;;;2.46;73.16;94614.38;5043490;28;20252;-65
2022/03/06 08:11:38;;;;;;;3.03;2.70;;;;;;;2.54;72.96;94624.16;5058653;28;20288;-63
2022/03/06 08:14:04;;;;;;;2.93;2.63;;;;;;;2.40;73.43;94607.03;5041440;28;20240;-64
2022/03/06 08:16:29;;;;;;;4.30;3.00;;;;;;;2.45;73.65;94615.31;5043760;28;20278;-64
2022/03/06 08:18:54;;;;;;;3.30;3.00;;;;;;;2.44;73.36;94611.06;5042269;28;20232;-64
2022/03/06 08:21:20;;;;;;;4.53;2.87;;;;;;;2.26;74.11;94620.19;5058418;28;20282;-63
2022/03/06 08:23:45;;;;;;;3.17;2.90;;;;;;;2.34;74.00;94615.25;5042726;28;20232;-63
2022/03/06 08:26:11;;;;;;;4.50;2.90;;;;;;;2.43;73.91;94619.78;5041827;28;20224;-64
2022/03/06 08:28:36;;;;;;;4.57;2.80;;;;;;;2.35;73.27;94609.97;5057909;28;20213;-66
2022/03/06 08:31:02;;;;;;;3.10;2.73;;;;;;;2.28;73.44;94605.34;5041400;28;20297;-66
2022/03/06 08:33:27;;;;;;;2.87;2.67;;;;;;;2.28;72.80;94619.13;5057357;28;20220;-64
2022/03/06 08:35:53;;;;;;;2.50;2.30;;;;;;;2.27;73.03;94617.47;5042179;28;20225;-65
2022/03/06 08:38:18;;;;;;;2.80;2.60;;;;;;;2.35;72.03;94615.16;5025592;28;20234;-66
2022/03/06 08:40:44;;;;;;;3.10;2.80;;;;;;;2.41;71.63;94603.50;5062050;28;20330;-65
2022/03/06 08:43:10;;;;;;;3.40;3.10;;;;;;;2.47;71.53;94600.44;5047795;28;20205;-65
2022/03/06 08:45:37;;;;;;;3.33;2.87;;;;;;;2.61;71.18;94596.84;5041974;28;20240;-66
2022/03/06 08:48:03;;;;;;;3.40;2.70;;;;;;;2.57;70.38;94598.84;5057073;28;20228;-65
2022/03/06 08:50:29;;;;;;;3.20;3.00;;;;;;;2.72;70.21;94598.63;5041570;28;20239;-64
2022/03/06 08:52:54;;;;;;;2.83;2.63;;;;;;;2.93;70.27;94602.22;5041713;28;20209;-64
2022/03/06 08:55:20;;;;;;;3.43;3.13;;;;;;;2.90;70.25;94599.84;5044392;28;20315;-64
2022/03/06 08:57:45;;;;;;;3.70;2.93;;;;;;;2.94;71.04;94603.88;5043882;28;20267;-65
2022/03/06 09:00:11;;;;;;;3.30;3.00;;;;;;;2.99;71.06;94596.53;5044196;28;20244;-65
2022/03/06 09:02:37;;;;;;;4.50;3.07;;;;;;;3.28;70.45;94588.31;5042415;28;20304;-64
2022/03/06 09:05:03;;;;;;;3.20;3.00;;;;;;;3.22;69.49;94584.41;5041894;28;20233;-65
2022/03/06 09:07:28;;;;;;;3.40;3.10;;;;;;;3.43;69.76;94589.72;5040525;28;20334;-65
2022/03/06 09:09:54;;;;;;;3.17;2.90;;;;;;;3.69;69.49;94594.69;5042614;28;20262;-65
2022/03/06 09:12:19;;;;;;;3.67;3.37;;;;;;;3.80;68.98;94594.66;5041701;28;20228;-65
2022/03/06 09:14:45;;;;;;;3.70;3.40;;;;;;;3.89;68.98;94588.72;5047531;28;20236;-65
2022/03/06 09:17:11;;;;;;;3.40;2.93;;;;;;;3.65;70.26;94593.25;5048320;28;20220;-66
2022/03/06 09:19:37;;;;;;;3.77;3.47;;;;;;;3.87;69.28;94593.19;5046214;28;20236;-66
2022/03/06 09:22:03;;;;;;;4.10;3.70;;;;;;;3.59;69.86;94597.16;5041768;28;20341;-65
2022/03/06 09:24:28;;;;;;;3.30;3.10;;;;;;;3.68;69.45;94601.63;5039642;28;20228;-66
2022/03/06 09:26:54;;;;;;;3.27;3.03;;;;;;;3.62;69.36;94604.72;5042060;28;20638;-66
2022/03/06 09:29:19;;;;;;;3.70;3.40;;;;;;;3.59;69.73;94611.94;5036873;28;20220;-65
2022/03/06 09:31:45;;;;;;;2.83;2.63;;;;;;;3.43;69.91;94613.13;5042257;28;20219;-65
2022/03/06 09:34:10;;;;;;;3.63;3.33;;;;;;;3.36;70.30;94598.94;5044844;28;20205;-65
2022/03/06 09:36:36;;;;;;;3.63;3.33;;;;;;;3.20;71.77;94596.69;5042802;28;20240;-64
2022/03/06 09:39:04;;;;;;;3.80;3.50;;;;;;;3.12;71.56;94596.44;5040154;28;20236;-64
2022/03/06 09:41:30;;;;;;;3.83;3.20;;;;;;;3.23;71.46;94601.66;5041853;28;20221;-65
2022/03/06 09:43:57;;;;;;;3.13;2.83;;;;;;;3.06;71.35;94602.94;5041714;28;20219;-64
2022/03/06 09:46:23;;;;;;;2.83;2.60;;;;;;;2.98;71.41;94607.06;5042488;28;20452;-64
2022/03/06 09:48:50;;;;;;;3.30;3.00;;;;;;;2.84;71.97;94601.16;5042857;28;20307;-65
2022/03/06 09:51:16;;;;;;;3.20;2.90;;;;;;;2.93;72.06;94602.22;5042486;28;20229;-65
2022/03/06 09:53:41;;;;;;;3.00;2.80;;;;;;;2.91;72.17;94614.47;5040560;28;20239;-65
2022/03/06 09:56:07;;;;;;;4.63;3.13;;;;;;;2.97;71.48;94611.44;5036598;28;20318;-65
2022/03/06 09:58:33;;;;;;;3.47;3.17;;;;;;;3.01;71.71;94605.06;5042582;28;20300;-65
2022/03/06 10:00:58;;;;;;;3.33;3.03;;;;;;;2.94;71.11;94598.69;5040741;28;20221;-65
2022/03/06 10:03:25;;;;;;;3.50;3.20;;;;;;;2.83;70.58;94607.28;5046820;28;20321;-64
2022/03/06 10:05:52;;;;;;;3.63;3.33;;;;;;;3.01;70.08;94610.25;5046642;28;20221;-65
2022/03/06 10:08:22;;;;;;;3.87;3.33;;;;;;;2.92;70.13;94610.97;5072384;28;20290;-64
2022/03/06 10:10:55;;;;;;;3.03;2.83;;;;;;;2.92;69.56;94620.53;5051369;28;20300;-64
2022/03/06 10:13:31;;;;;;;3.67;3.37;;;;;;;2.83;69.15;94609.88;5047479;28;20235;-62
2022/03/06 10:16:08;;;;;;;3.90;3.10;;;;;;;2.74;69.99;94607.97;5061886;28;20227;-64
2022/03/06 10:18:40;;;;;;;4.00;3.60;;;;;;;2.91;69.38;94609.28;5047181;28;20244;-62
2022/03/06 10:21:09;;;;;;;4.13;3.73;;;;;;;2.88;68.40;94615.53;5047684;28;20220;-64
2022/03/06 10:23:36;;;;;;;4.07;3.77;;;;;;;2.93;69.22;94624.75;5047661;28;20224;-64
2022/03/06 10:26:04;;;;;;;5.30;4.90;;;;;;;2.85;68.27;94626.16;5049668;28;20225;-64
2022/03/06 10:28:29;;;;;;;5.43;4.70;;;;;;;2.71;67.87;94609.97;5049919;28;20213;-64
2022/03/06 10:31:03;;;;;;;4.73;4.33;;;;;;;2.75;68.08;94608.78;5048326;28;20217;-64
2022/03/06 10:33:28;;;;;;;4.67;4.27;;;;;;;2.38;67.23;94609.75;5044618;28;20263;-64
2022/03/06 10:35:58;;;;;;;4.47;3.90;;;;;;;2.50;67.54;94604.59;5062880;28;20232;-64
2022/03/06 10:38:32;;;;;;;4.50;4.10;;;;;;;2.62;67.20;94604.53;5045849;28;20255;-65
2022/03/06 10:41:01;;;;;;;4.70;4.30;;;;;;;2.77;67.51;94605.13;5046056;28;20233;-65
2022/03/06 10:43:32;;;;;;;4.83;4.40;;;;;;;2.75;67.24;94596.63;5049554;28;20578;-66
2022/03/06 10:46:15;;;;;;;5.40;4.90;;;;;;;2.80;67.18;94606.66;5046235;28;20286;-65
2022/03/06 10:48:43;;;;;;;4.97;4.57;;;;;;;2.86;67.68;94604.47;5044968;28;20228;-64
2022/03/06 10:51:13;;;;;;;4.47;4.10;;;;;;;2.90;67.21;94605.03;5063476;28;20296;-66
2022/03/06 10:53:39;;;;;;;4.77;4.37;;;;;;;2.96;67.12;94601.97;5050205;28;20223;-66
2022/03/06 10:56:10;;;;;;;3.87;3.57;;;;;;;2.86;66.52;94608.81;5043197;28;20255;-65
2022/03/06 10:58:38;;;;;;;3.80;3.23;;;;;;;2.87;66.89;94598.31;5045404;28;20200;-65
2022/03/06 11:01:03;;;;;;;3.73;2.60;;;;;;;2.75;67.68;94593.19;5044145;28;20224;-64
2022/03/06 11:03:32;;;;;;;3.07;2.77;;;;;;;3.00;67.42;94598.22;5044560;28;20224;-64
2022/03/06 11:05:58;;;;;;;4.13;2.90;;;;;;;2.95;67.45;94595.13;5041451;28;20283;-64
2022/03/06 11:08:25;;;;;;;3.43;2.60;;;;;;;2.80;68.00;94593.69;5042676;28;20369;-65
2022/03/06 11:10:51;;;;;;;3.13;2.83;;;;;;;2.77;68.67;94605.13;5042911;28;20303;-66
2022/03/06 11:13:17;;;;;;;4.03;3.73;;;;;;;2.93;69.67;94601.41;5060373;28;20255;-65
2022/03/06 11:15:43;;;;;;;3.27;3.07;;;;;;;2.90;69.69;94612.00;5046500;28;20225;-65
2022/03/06 11:18:08;;;;;;;3.00;2.80;;;;;;;2.85;69.51;94610.56;5061839;28;20221;-66
2022/03/06 11:20:36;;;;;;;3.50;3.20;;;;;;;2.73;69.16;94600.31;5047304;28;20217;-64
2022/03/06 11:23:11;;;;;;;3.07;2.80;;;;;;;2.43;70.19;94604.19;5045857;28;20232;-65
2022/03/06 11:25:45;;;;;;;3.87;3.50;;;;;;;2.50;70.37;94602.81;5060124;28;20204;-65
2022/03/06 11:28:34;;;;;;;3.67;3.37;;;;;;;2.54;70.46;94600.81;5058744;28;20251;-65
2022/03/06 11:31:00;;;;;;;4.50;4.10;;;;;;;2.37;70.97;94604.66;5060386;28;20221;-66
2022/03/06 11:33:26;;;;;;;3.53;3.23;;;;;;;2.31;71.11;94605.13;5045912;28;20236;-65
2022/03/06 11:35:51;;;;;;;3.90;3.60;;;;;;;2.36;70.61;94590.03;5049969;28;20220;-66